Time;durP1;ratioP1;P1;durP2;ratioP2;P2;SDS_P1;SDS_P2;PMS_P1;PMS_P2;Temp;Humidity;BMP_temperature;BMP_pressure;BME280_temperature;BME280_humidity;BME280_pressure;Samples;Min_cycle;Max_cycle;Signal;HPM_P1;HPM_P2
2022/07/14 00:00:19;;;;;;;8.25;2.28;;;;;;;;;;5070994;28;20179;-60
2022/07/14 00:02:45;;;;;;;15.13;2.47;;;;;;;;;;5054623;28;20224;-60
2022/07/14 00:05:11;;;;;;;6.55;2.40;;;;;;;;;;5068472;28;20652;-60
2022/07/14 00:07:37;;;;;;;9.55;2.30;;;;;;;;;;5064067;28;20651;-60
2022/07/14 00:10:04;;;;;;;10.27;2.40;;;;;;;;;;5067540;28;20262;-60
2022/07/14 00:12:30;;;;;;;9.32;2.45;;;;;;;;;;5057306;28;20600;-60
2022/07/14 00:14:56;;;;;;;11.02;2.47;;;;;;;;;;5070019;28;20529;-60
2022/07/14 00:17:23;;;;;;;12.60;2.80;;;;;;;;;;5072280;28;20687;-60
2022/07/14 00:19:49;;;;;;;9.50;2.40;;;;;;;;;;5070036;28;20186;-60
2022/07/14 00:22:15;;;;;;;12.20;2.38;;;;;;;;;;5070308;28;20192;-60
2022/07/14 00:24:41;;;;;;;8.70;2.65;;;;;;;;;;5070864;28;20183;-60
2022/07/14 00:27:07;;;;;;;15.52;2.75;;;;;;;;;;5069476;28;20187;-59
2022/07/14 00:29:37;;;;;;;10.32;2.90;;;;;;;;;;5052752;28;20190;-60
2022/07/14 00:32:06;;;;;;;8.02;2.35;;;;;;;;;;5059974;28;20637;-60
2022/07/14 00:34:33;;;;;;;6.90;2.35;;;;;;;;;;5071859;28;20576;-60
2022/07/14 00:36:59;;;;;;;9.05;2.38;;;;;;;;;;5074701;28;20206;-59
2022/07/14 00:39:26;;;;;;;12.05;2.70;;;;;;;;;;5073504;28;20216;-60
2022/07/14 00:41:52;;;;;;;9.85;2.40;;;;;;;;;;5058034;28;20266;-60
2022/07/14 00:44:18;;;;;;;10.88;2.72;;;;;;;;;;5074818;28;20187;-60
2022/07/14 00:46:45;;;;;;;12.95;2.50;;;;;;;;;;5038004;28;20297;-60
2022/07/14 00:49:11;;;;;;;7.88;2.30;;;;;;;;;;5022583;28;20313;-60
2022/07/14 00:51:37;;;;;;;8.48;2.20;;;;;;;;;;5034772;28;20267;-59
2022/07/14 00:54:04;;;;;;;10.50;2.40;;;;;;;;;;5033864;28;20323;-59
2022/07/14 00:56:30;;;;;;;10.00;2.83;;;;;;;;;;5013543;28;20219;-60
2022/07/14 00:58:58;;;;;;;14.88;3.03;;;;;;;;;;5028585;28;20184;-60
2022/07/14 01:01:24;;;;;;;8.70;2.30;;;;;;;;;;5028610;28;20669;-60
2022/07/14 01:03:50;;;;;;;10.88;3.00;;;;;;;;;;5032798;28;20245;-59
2022/07/14 01:06:17;;;;;;;8.88;3.03;;;;;;;;;;5045885;28;20192;-60
2022/07/14 01:08:43;;;;;;;12.10;3.28;;;;;;;;;;5032771;28;20195;-60
2022/07/14 01:11:09;;;;;;;10.32;3.42;;;;;;;;;;5017729;28;20218;-60
2022/07/14 01:13:36;;;;;;;12.10;3.05;;;;;;;;;;5030590;28;20342;-60
2022/07/14 01:16:04;;;;;;;11.10;3.80;;;;;;;;;;5032112;28;20222;-60
2022/07/14 01:18:32;;;;;;;10.25;2.90;;;;;;;;;;5031453;28;20191;-60
2022/07/14 01:20:58;;;;;;;9.63;2.30;;;;;;;;;;5021866;28;20363;-60
2022/07/14 01:23:26;;;;;;;14.07;2.65;;;;;;;;;;5018324;28;20562;-60
2022/07/14 01:25:52;;;;;;;9.73;2.10;;;;;;;;;;5034217;28;20186;-60
2022/07/14 01:28:18;;;;;;;12.98;2.13;;;;;;;;;;5033871;28;20603;-59
2022/07/14 01:30:47;;;;;;;7.85;2.00;;;;;;;;;;5020653;28;20180;-60
2022/07/14 01:33:14;;;;;;;8.02;2.15;;;;;;;;;;5016249;28;20551;-59
2022/07/14 01:35:40;;;;;;;6.85;2.10;;;;;;;;;;5022488;28;20176;-59
2022/07/14 01:38:07;;;;;;;9.63;2.03;;;;;;;;;;5013798;28;20622;-60
2022/07/14 01:40:33;;;;;;;7.88;2.10;;;;;;;;;;5015069;28;20235;-59
2022/07/14 01:42:59;;;;;;;11.50;2.13;;;;;;;;;;5014664;28;20606;-60
2022/07/14 01:45:25;;;;;;;4.03;1.67;;;;;;;;;;5013309;28;20294;-60
2022/07/14 01:47:51;;;;;;;9.75;2.28;;;;;;;;;;5044434;28;20191;-60
2022/07/14 01:50:18;;;;;;;8.98;2.40;;;;;;;;;;5038432;28;20186;-60
2022/07/14 01:52:45;;;;;;;10.57;2.72;;;;;;;;;;5050316;28;20653;-60
2022/07/14 01:55:12;;;;;;;9.30;2.40;;;;;;;;;;5052574;28;20233;-60
2022/07/14 01:57:38;;;;;;;9.88;2.45;;;;;;;;;;5053365;28;20302;-60
2022/07/14 02:00:06;;;;;;;7.63;2.67;;;;;;;;;;5047090;28;20187;-59
2022/07/14 02:02:32;;;;;;;9.48;2.15;;;;;;;;;;5034160;28;20182;-59
2022/07/14 02:05:00;;;;;;;7.55;2.30;;;;;;;;;;5033342;28;20691;-59
2022/07/14 02:07:26;;;;;;;8.05;2.13;;;;;;;;;;5032962;28;20191;-59
2022/07/14 02:12:49;;;;;;;10.43;2.50;;;;;;;;;;5040559;28;20192;-59
2022/07/14 02:15:15;;;;;;;7.97;2.22;;;;;;;;;;5068795;28;20187;-59
2022/07/14 02:17:43;;;;;;;8.55;2.35;;;;;;;;;;5046427;28;20208;-59
2022/07/14 02:20:11;;;;;;;9.95;2.22;;;;;;;;;;5046681;28;20282;-59
2022/07/14 02:22:37;;;;;;;7.30;2.25;;;;;;;;;;5053135;28;20218;-59
2022/07/14 02:25:05;;;;;;;12.63;2.35;;;;;;;;;;5035111;28;20195;-59
2022/07/14 02:27:31;;;;;;;7.68;2.20;;;;;;;;;;5016496;28;20315;-59
2022/07/14 02:29:57;;;;;;;7.53;2.55;;;;;;;;;;5045495;28;20214;-60
2022/07/14 02:32:24;;;;;;;10.68;2.00;;;;;;;;;;5032538;28;20184;-60
2022/07/14 02:34:52;;;;;;;7.13;2.13;;;;;;;;;;5050122;28;20191;-60
2022/07/14 02:37:18;;;;;;;7.10;2.15;;;;;;;;;;5050832;28;20218;-60
2022/07/14 02:39:44;;;;;;;6.57;2.00;;;;;;;;;;5050318;28;20194;-59
2022/07/14 02:42:10;;;;;;;6.47;1.90;;;;;;;;;;5035801;28;20195;-60
2022/07/14 02:44:38;;;;;;;10.60;2.20;;;;;;;;;;5046644;28;20180;-60
2022/07/14 02:47:04;;;;;;;5.55;2.00;;;;;;;;;;5031542;28;20231;-60
2022/07/14 02:49:30;;;;;;;7.28;2.17;;;;;;;;;;5029388;28;20278;-60
2022/07/14 02:51:57;;;;;;;6.30;2.20;;;;;;;;;;5037841;28;20187;-60
2022/07/14 02:54:23;;;;;;;7.82;2.17;;;;;;;;;;5040351;28;20190;-60
2022/07/14 02:56:50;;;;;;;13.88;1.75;;;;;;;;;;5044870;28;20220;-60
2022/07/14 02:59:16;;;;;;;12.15;2.25;;;;;;;;;;5042090;28;20250;-60
2022/07/14 03:01:47;;;;;;;10.15;1.80;;;;;;;;;;5033657;28;20188;-60
2022/07/14 03:04:19;;;;;;;7.28;2.25;;;;;;;;;;5034371;28;20191;-60
2022/07/14 03:06:45;;;;;;;6.38;2.55;;;;;;;;;;5031872;28;20712;-60
2022/07/14 03:09:13;;;;;;;8.35;2.20;;;;;;;;;;5049178;28;20184;-59
2022/07/14 03:11:39;;;;;;;6.30;2.25;;;;;;;;;;5035327;28;20668;-59
2022/07/14 03:14:06;;;;;;;6.35;2.10;;;;;;;;;;5034219;28;20224;-60
2022/07/14 03:16:32;;;;;;;8.20;2.25;;;;;;;;;;5052603;28;20688;-60
2022/07/14 03:19:05;;;;;;;8.23;2.25;;;;;;;;;;5042106;28;20191;-60
2022/07/14 03:21:31;;;;;;;9.35;2.15;;;;;;;;;;5015597;28;20180;-60
2022/07/14 03:23:58;;;;;;;9.63;2.28;;;;;;;;;;5040657;28;20179;-60
2022/07/14 03:26:30;;;;;;;5.40;2.00;;;;;;;;;;5037616;28;20199;-60
2022/07/14 03:28:57;;;;;;;7.00;1.85;;;;;;;;;;5042560;28;20208;-60
2022/07/14 03:31:24;;;;;;;8.63;2.20;;;;;;;;;;5034110;28;20546;-60
2022/07/14 03:33:50;;;;;;;6.40;1.98;;;;;;;;;;5050508;28;20560;-60
2022/07/14 03:36:19;;;;;;;8.02;1.80;;;;;;;;;;5051619;28;20207;-59
2022/07/14 03:38:45;;;;;;;7.13;1.83;;;;;;;;;;5044298;28;20269;-59
2022/07/14 03:41:12;;;;;;;7.20;2.10;;;;;;;;;;5034942;28;20218;-59
2022/07/14 03:43:39;;;;;;;8.90;2.15;;;;;;;;;;5044663;28;20191;-60
2022/07/14 03:46:07;;;;;;;6.43;2.38;;;;;;;;;;5030886;28;20313;-60
2022/07/14 03:48:37;;;;;;;7.95;2.13;;;;;;;;;;5047952;28;20183;-59
2022/07/14 03:51:05;;;;;;;12.02;2.38;;;;;;;;;;5051710;28;20186;-60
2022/07/14 03:53:33;;;;;;;8.32;2.13;;;;;;;;;;5051283;28;20207;-59
2022/07/14 03:56:00;;;;;;;6.22;2.50;;;;;;;;;;5040854;28;20270;-59
2022/07/14 03:58:36;;;;;;;7.15;2.90;;;;;;;;;;5030819;28;20199;-59
2022/07/14 04:01:03;;;;;;;9.15;3.20;;;;;;;;;;5040661;28;20249;-58
2022/07/14 04:03:30;;;;;;;10.80;3.22;;;;;;;;;;5042723;28;20191;-59
2022/07/14 04:05:57;;;;;;;9.80;3.90;;;;;;;;;;5050180;28;20227;-59
2022/07/14 04:08:24;;;;;;;8.80;2.80;;;;;;;;;;5052672;28;20183;-59
2022/07/14 04:10:57;;;;;;;6.63;2.70;;;;;;;;;;5054117;28;20221;-59
2022/07/14 04:13:23;;;;;;;7.72;2.92;;;;;;;;;;5050292;28;20214;-59
2022/07/14 04:15:49;;;;;;;8.98;3.53;;;;;;;;;;5055520;28;20183;-59
2022/07/14 04:18:16;;;;;;;6.53;3.13;;;;;;;;;;5050084;28;20569;-59
2022/07/14 04:20:50;;;;;;;8.57;2.80;;;;;;;;;;5053893;28;20318;-60
2022/07/14 04:23:18;;;;;;;8.27;2.80;;;;;;;;;;5053769;28;20714;-59
2022/07/14 04:25:45;;;;;;;9.05;2.67;;;;;;;;;;5045706;28;20179;-60
2022/07/14 04:28:11;;;;;;;9.00;2.55;;;;;;;;;;5051633;28;20766;-60
2022/07/14 04:30:38;;;;;;;7.57;2.70;;;;;;;;;;5040740;28;20187;-60
2022/07/14 04:33:04;;;;;;;6.88;2.65;;;;;;;;;;5031688;28;20195;-60
2022/07/14 04:35:31;;;;;;;8.70;2.47;;;;;;;;;;5043957;28;20188;-60
2022/07/14 04:37:57;;;;;;;7.63;2.58;;;;;;;;;;5035055;28;20231;-60
2022/07/14 04:40:31;;;;;;;9.43;2.80;;;;;;;;;;5053915;28;20186;-60
2022/07/14 04:42:59;;;;;;;10.00;2.35;;;;;;;;;;5053622;28;20191;-60
2022/07/14 04:45:26;;;;;;;8.73;2.88;;;;;;;;;;5049600;28;20788;-60
2022/07/14 04:47:53;;;;;;;5.00;2.58;;;;;;;;;;5014768;28;20188;-60
2022/07/14 04:53:04;;;;;;;9.68;3.08;;;;;;;;;;5013502;28;20191;-59
2022/07/14 04:55:40;;;;;;;6.20;2.60;;;;;;;;;;5027008;28;20199;-59
2022/07/14 04:58:16;;;;;;;9.73;3.20;;;;;;;;;;5024815;28;20191;-60
2022/07/14 05:00:43;;;;;;;7.40;2.85;;;;;;;;;;5028532;28;20291;-59
2022/07/14 05:03:10;;;;;;;8.57;3.13;;;;;;;;;;5033043;28;20271;-59
2022/07/14 05:05:36;;;;;;;14.10;2.95;;;;;;;;;;5034314;28;20178;-59
2022/07/14 05:08:03;;;;;;;10.13;3.28;;;;;;;;;;5032992;28;20184;-60
2022/07/14 05:10:38;;;;;;;9.15;3.60;;;;;;;;;;5016985;28;21368;-60
2022/07/14 05:13:04;;;;;;;14.80;3.85;;;;;;;;;;5029411;28;20187;-60
2022/07/14 05:15:30;;;;;;;17.08;3.63;;;;;;;;;;5014550;28;20227;-60
2022/07/14 05:17:57;;;;;;;12.68;3.97;;;;;;;;;;4996573;28;20212;-60
2022/07/14 05:20:23;;;;;;;9.82;4.00;;;;;;;;;;5014141;28;20214;-60
2022/07/14 05:22:49;;;;;;;8.23;3.47;;;;;;;;;;5032601;28;20214;-60
2022/07/14 05:25:15;;;;;;;9.65;2.90;;;;;;;;;;5033906;28;20198;-59
2022/07/14 05:27:42;;;;;;;8.25;2.63;;;;;;;;;;5033750;28;20626;-60
2022/07/14 05:30:18;;;;;;;11.52;2.72;;;;;;;;;;5032428;28;20191;-60
2022/07/14 05:32:45;;;;;;;10.82;2.33;;;;;;;;;;5015012;28;20279;-60
2022/07/14 05:35:11;;;;;;;12.40;2.63;;;;;;;;;;5032633;28;20206;-60
2022/07/14 05:37:38;;;;;;;8.48;2.70;;;;;;;;;;5032479;28;20218;-59
2022/07/14 05:40:05;;;;;;;9.77;2.30;;;;;;;;;;5021085;28;20234;-59
2022/07/14 05:42:32;;;;;;;9.30;2.08;;;;;;;;;;5032574;28;20188;-59
2022/07/14 05:44:58;;;;;;;13.75;2.10;;;;;;;;;;5009021;28;20322;-59
2022/07/14 05:47:25;;;;;;;6.20;2.00;;;;;;;;;;5028312;28;20267;-59
2022/07/14 05:49:51;;;;;;;7.68;2.00;;;;;;;;;;5025717;28;20210;-59
2022/07/14 05:52:17;;;;;;;12.15;2.53;;;;;;;;;;5013638;28;20184;-59
2022/07/14 05:54:43;;;;;;;8.27;2.50;;;;;;;;;;5029317;28;20199;-60
2022/07/14 05:57:09;;;;;;;10.05;3.00;;;;;;;;;;5033435;28;20211;-60
2022/07/14 05:59:36;;;;;;;14.60;2.20;;;;;;;;;;5030972;28;20274;-60
2022/07/14 06:02:03;;;;;;;13.50;2.38;;;;;;;;;;5000611;28;20188;-59
2022/07/14 06:04:30;;;;;;;8.90;1.90;;;;;;;;;;5026429;28;20271;-59
2022/07/14 06:06:57;;;;;;;12.07;2.40;;;;;;;;;;5028833;28;20183;-59
2022/07/14 06:09:23;;;;;;;8.35;2.50;;;;;;;;;;5013346;28;20334;-59
2022/07/14 06:11:49;;;;;;;17.98;2.55;;;;;;;;;;5014163;28;20191;-60
2022/07/14 06:14:16;;;;;;;10.70;2.42;;;;;;;;;;5023415;28;20207;-58
2022/07/14 06:16:43;;;;;;;7.38;2.17;;;;;;;;;;5031034;28;20685;-59
2022/07/14 06:19:19;;;;;;;8.80;2.40;;;;;;;;;;5032849;28;20245;-59
2022/07/14 06:21:45;;;;;;;7.00;2.38;;;;;;;;;;5026295;28;20188;-59
2022/07/14 06:24:12;;;;;;;9.20;2.65;;;;;;;;;;5018720;28;20255;-58
2022/07/14 06:26:39;;;;;;;13.57;2.00;;;;;;;;;;5021077;28;20187;-59
2022/07/14 06:29:05;;;;;;;10.73;2.80;;;;;;;;;;5031004;28;20255;-59
2022/07/14 06:31:34;;;;;;;12.80;2.10;;;;;;;;;;5031347;28;20192;-59
2022/07/14 06:34:03;;;;;;;12.02;1.55;;;;;;;;;;5028197;28;20227;-59
2022/07/14 06:36:55;;;;;;;7.60;1.83;;;;;;;;;;5029098;28;20657;-59
2022/07/14 06:39:22;;;;;;;8.90;1.80;;;;;;;;;;5019455;28;20185;-59
2022/07/14 06:41:49;;;;;;;7.75;1.92;;;;;;;;;;5028283;28;20196;-59
2022/07/14 06:44:21;;;;;;;11.20;1.85;;;;;;;;;;5019478;28;20207;-59
2022/07/14 06:46:47;;;;;;;5.93;1.60;;;;;;;;;;5048393;28;20222;-59
2022/07/14 06:49:13;;;;;;;7.50;1.50;;;;;;;;;;5071715;28;20277;-59
2022/07/14 06:51:39;;;;;;;10.50;2.05;;;;;;;;;;5066784;28;20207;-59
2022/07/14 06:54:07;;;;;;;15.93;7.57;;;;;;;;;;5070312;28;20186;-62
2022/07/14 06:56:33;;;;;;;5.03;1.70;;;;;;;;;;5072681;28;20238;-60
2022/07/14 06:58:59;;;;;;;8.30;1.75;;;;;;;;;;5044524;28;20648;-60
2022/07/14 07:01:25;;;;;;;7.97;1.80;;;;;;;;;;5067348;28;20190;-59
2022/07/14 07:03:51;;;;;;;7.72;1.60;;;;;;;;;;5070704;28;20277;-59
2022/07/14 07:09:02;;;;;;;11.55;1.90;;;;;;;;;;5069277;28;20209;-59
2022/07/14 07:11:28;;;;;;;5.18;1.45;;;;;;;;;;5059605;28;20237;-59
2022/07/14 07:13:54;;;;;;;6.68;1.52;;;;;;;;;;5035258;28;20207;-59
2022/07/14 07:16:21;;;;;;;10.18;2.03;;;;;;;;;;5070150;28;20678;-59
2022/07/14 07:18:47;;;;;;;8.85;1.60;;;;;;;;;;5071738;28;20281;-60
2022/07/14 07:21:14;;;;;;;7.93;1.80;;;;;;;;;;5056051;28;20188;-59
2022/07/14 07:23:44;;;;;;;10.05;1.70;;;;;;;;;;5056364;28;20244;-59
2022/07/14 07:26:11;;;;;;;8.07;1.65;;;;;;;;;;5065300;28;20273;-60
2022/07/14 07:28:37;;;;;;;6.85;1.92;;;;;;;;;;5069417;28;20212;-59
2022/07/14 07:31:03;;;;;;;4.93;1.33;;;;;;;;;;5067704;28;20178;-59
2022/07/14 07:33:29;;;;;;;5.90;1.85;;;;;;;;;;5043469;28;20178;-59
2022/07/14 07:35:55;;;;;;;6.75;1.60;;;;;;;;;;5038581;28;20178;-59
2022/07/14 07:38:21;;;;;;;18.25;10.55;;;;;;;;;;5071550;28;20183;-59
2022/07/14 07:40:48;;;;;;;9.43;2.03;;;;;;;;;;5056474;28;20586;-60
2022/07/14 07:43:15;;;;;;;10.68;2.30;;;;;;;;;;5071719;28;20189;-59
2022/07/14 07:45:41;;;;;;;7.93;1.65;;;;;;;;;;5071292;28;21064;-59
2022/07/14 07:48:07;;;;;;;6.22;1.70;;;;;;;;;;5071342;28;20318;-59
2022/07/14 07:50:34;;;;;;;6.35;1.60;;;;;;;;;;5052492;28;20197;-59
2022/07/14 07:53:00;;;;;;;6.30;1.40;;;;;;;;;;5052965;28;20191;-59
2022/07/14 07:55:26;;;;;;;5.40;1.52;;;;;;;;;;5071369;28;20682;-59
2022/07/14 07:57:52;;;;;;;8.57;1.83;;;;;;;;;;5057598;28;20221;-59
2022/07/14 08:00:18;;;;;;;5.10;1.20;;;;;;;;;;5055673;28;20184;-59
2022/07/14 08:02:48;;;;;;;5.53;1.45;;;;;;;;;;5053617;28;20183;-59
2022/07/14 08:05:16;;;;;;;6.35;1.50;;;;;;;;;;5044818;28;20298;-59
2022/07/14 08:07:43;;;;;;;6.93;1.33;;;;;;;;;;5051884;28;20670;-59
2022/07/14 08:10:09;;;;;;;7.25;1.65;;;;;;;;;;5070182;28;20174;-59
2022/07/14 08:12:35;;;;;;;11.73;1.80;;;;;;;;;;5052851;28;20910;-59
2022/07/14 08:15:01;;;;;;;6.35;2.30;;;;;;;;;;5068957;28;20265;-59
2022/07/14 08:17:27;;;;;;;13.18;1.98;;;;;;;;;;5046593;28;20210;-60
2022/07/14 08:19:55;;;;;;;13.65;2.10;;;;;;;;;;5059961;28;20234;-61
2022/07/14 08:22:24;;;;;;;7.65;2.22;;;;;;;;;;5052508;28;20189;-60
2022/07/14 08:24:51;;;;;;;12.13;2.90;;;;;;;;;;5066341;28;20194;-59
2022/07/14 08:27:17;;;;;;;9.93;2.72;;;;;;;;;;5071273;28;20205;-59
2022/07/14 08:29:43;;;;;;;10.13;2.50;;;;;;;;;;5070937;28;20191;-59
2022/07/14 08:32:09;;;;;;;6.75;1.92;;;;;;;;;;5072267;28;20180;-59
2022/07/14 08:34:35;;;;;;;7.63;1.75;;;;;;;;;;5043448;28;20200;-59
2022/07/14 08:37:01;;;;;;;12.63;2.00;;;;;;;;;;5052371;28;20257;-59
2022/07/14 08:39:28;;;;;;;11.88;2.60;;;;;;;;;;5061757;28;20193;-59
2022/07/14 08:41:54;;;;;;;6.30;2.17;;;;;;;;;;5072334;28;20179;-59
2022/07/14 08:44:21;;;;;;;16.13;2.28;;;;;;;;;;5072408;28;20179;-60
2022/07/14 08:46:47;;;;;;;8.25;2.55;;;;;;;;;;5063691;28;20680;-60
2022/07/14 08:49:17;;;;;;;9.48;2.42;;;;;;;;;;5041678;28;20348;-59
2022/07/14 08:51:43;;;;;;;5.63;2.40;;;;;;;;;;5053109;28;20191;-60
2022/07/14 08:54:10;;;;;;;10.90;2.45;;;;;;;;;;5065948;28;20243;-60
2022/07/14 08:56:37;;;;;;;10.23;2.58;;;;;;;;;;5074233;28;20275;-60
2022/07/14 08:59:03;;;;;;;8.95;2.53;;;;;;;;;;5070964;28;20201;-59
2022/07/14 09:01:30;;;;;;;10.13;2.35;;;;;;;;;;5056269;28;20218;-60
2022/07/14 09:03:57;;;;;;;6.80;1.75;;;;;;;;;;5063619;28;20560;-59
2022/07/14 09:06:41;;;;;;;8.52;2.03;;;;;;;;;;5072547;28;20186;-60
2022/07/14 09:09:07;;;;;;;4.70;1.73;;;;;;;;;;5045857;28;20207;-60
2022/07/14 09:11:33;;;;;;;7.90;2.08;;;;;;;;;;5067030;28;20192;-59
2022/07/14 09:14:09;;;;;;;8.27;1.90;;;;;;;;;;5073947;28;20233;-59
2022/07/14 09:16:37;;;;;;;7.00;2.10;;;;;;;;;;5074348;28;20209;-59
2022/07/14 09:19:03;;;;;;;12.55;2.10;;;;;;;;;;5065436;28;20191;-59
2022/07/14 09:21:29;;;;;;;5.65;1.88;;;;;;;;;;5046908;28;20187;-61
2022/07/14 09:23:57;;;;;;;6.78;2.10;;;;;;;;;;5067952;28;20187;-59
2022/07/14 09:26:24;;;;;;;8.05;2.10;;;;;;;;;;5055356;28;20183;-59
2022/07/14 09:28:51;;;;;;;6.78;1.80;;;;;;;;;;5062847;28;20531;-60
2022/07/14 09:31:21;;;;;;;7.93;1.80;;;;;;;;;;5074870;28;20171;-60
2022/07/14 09:33:48;;;;;;;8.40;1.50;;;;;;;;;;5071944;28;20186;-60
2022/07/14 09:36:23;;;;;;;5.22;1.67;;;;;;;;;;5075258;28;20243;-60
2022/07/14 09:38:49;;;;;;;5.63;1.63;;;;;;;;;;5066536;28;20552;-60
2022/07/14 09:41:15;;;;;;;9.13;1.60;;;;;;;;;;5055610;28;20229;-60
2022/07/14 09:44:01;;;;;;;7.57;1.65;;;;;;;;;;5044323;28;20202;-59
2022/07/14 09:46:43;;;;;;;10.80;1.48;;;;;;;;;;5074110;28;20268;-60
2022/07/14 09:49:10;;;;;;;7.35;1.40;;;;;;;;;;5055033;28;20194;-59
2022/07/14 09:51:51;;;;;;;6.80;1.67;;;;;;;;;;5073921;28;20197;-60
2022/07/14 09:54:37;;;;;;;6.50;1.50;;;;;;;;;;5059800;28;20214;-59
2022/07/14 09:57:07;;;;;;;6.85;1.73;;;;;;;;;;5057487;28;20583;-59
2022/07/14 09:59:43;;;;;;;7.15;1.40;;;;;;;;;;5067107;28;20186;-59
2022/07/14 10:02:12;;;;;;;5.97;1.50;;;;;;;;;;5050418;28;20662;-59
2022/07/14 10:04:38;;;;;;;6.65;1.55;;;;;;;;;;5054300;28;20175;-59
2022/07/14 10:07:04;;;;;;;11.25;1.83;;;;;;;;;;5074142;28;20179;-58
2022/07/14 10:09:32;;;;;;;6.60;1.60;;;;;;;;;;5072540;28;20190;-60
2022/07/14 10:12:00;;;;;;;5.50;1.40;;;;;;;;;;5074283;28;20202;-59
2022/07/14 10:14:26;;;;;;;5.28;1.42;;;;;;;;;;5071538;28;20189;-60
2022/07/14 10:16:52;;;;;;;5.20;1.42;;;;;;;;;;5071199;28;20289;-59
2022/07/14 10:19:19;;;;;;;3.72;1.30;;;;;;;;;;5038178;28;20552;-59
2022/07/14 10:21:46;;;;;;;4.78;1.50;;;;;;;;;;5064047;28;20191;-59
2022/07/14 10:24:13;;;;;;;6.07;1.52;;;;;;;;;;5057377;28;20179;-59
2022/07/14 10:26:39;;;;;;;9.25;1.80;;;;;;;;;;5057191;28;20263;-59
2022/07/14 10:29:06;;;;;;;7.88;1.42;;;;;;;;;;5053001;28;20685;-58
2022/07/14 10:31:35;;;;;;;6.72;1.48;;;;;;;;;;5072566;28;20194;-60
2022/07/14 10:34:04;;;;;;;6.15;1.67;;;;;;;;;;5071241;28;20248;-57
2022/07/14 10:36:35;;;;;;;4.45;1.50;;;;;;;;;;5053786;28;20691;-60
2022/07/14 10:39:10;;;;;;;3.90;1.20;;;;;;;;;;5068822;28;20190;-57
2022/07/14 10:42:02;;;;;;;6.65;1.10;;;;;;;;;;5058304;28;20186;-57
2022/07/14 10:44:29;;;;;;;4.93;1.27;;;;;;;;;;5031448;28;20214;-58
2022/07/14 10:47:12;;;;;;;6.00;1.60;;;;;;;;;;5062976;28;20241;-59
2022/07/14 10:49:59;;;;;;;5.63;1.70;;;;;;;;;;5050213;28;20770;-59
2022/07/14 10:52:28;;;;;;;2.72;1.20;;;;;;;;;;5071169;28;20190;-57
2022/07/14 10:55:12;;;;;;;5.85;1.27;;;;;;;;;;5072124;28;20674;-57
2022/07/14 10:57:39;;;;;;;5.38;1.40;;;;;;;;;;5040130;28;20209;-57
2022/07/14 11:00:06;;;;;;;5.10;1.10;;;;;;;;;;5070498;28;20186;-59
2022/07/14 11:02:33;;;;;;;5.32;1.05;;;;;;;;;;5067748;28;20216;-59
2022/07/14 11:05:12;;;;;;;4.90;1.00;;;;;;;;;;5069517;28;20595;-57
2022/07/14 11:07:53;;;;;;;5.07;0.88;;;;;;;;;;5037201;28;20636;-57
2022/07/14 11:10:39;;;;;;;4.80;1.00;;;;;;;;;;5055049;28;20186;-58
2022/07/14 11:13:05;;;;;;;4.22;1.10;;;;;;;;;;5069769;28;20548;-60
2022/07/14 11:15:44;;;;;;;5.13;1.35;;;;;;;;;;5070959;28;20174;-59
2022/07/14 11:18:24;;;;;;;5.90;1.20;;;;;;;;;;5069070;28;20202;-59
2022/07/14 11:20:55;;;;;;;4.70;0.90;;;;;;;;;;5061662;28;20187;-58
2022/07/14 11:23:26;;;;;;;4.50;1.10;;;;;;;;;;5055622;28;20217;-59
2022/07/14 11:25:53;;;;;;;6.68;1.30;;;;;;;;;;5067625;28;20179;-59
2022/07/14 11:28:31;;;;;;;7.68;1.10;;;;;;;;;;5037407;28;20182;-59
2022/07/14 11:31:07;;;;;;;4.20;1.13;;;;;;;;;;5068944;28;20191;-59
2022/07/14 11:33:33;;;;;;;3.05;1.00;;;;;;;;;;5071739;28;20181;-59
2022/07/14 11:36:19;;;;;;;6.60;1.20;;;;;;;;;;5072609;28;20254;-59
2022/07/14 11:38:46;;;;;;;4.22;0.90;;;;;;;;;;5070678;28;20186;-59
2022/07/14 11:41:13;;;;;;;3.08;0.80;;;;;;;;;;5066891;28;20244;-58
2022/07/14 11:43:41;;;;;;;1.98;0.75;;;;;;;;;;5060112;28;20209;-59
2022/07/14 11:46:12;;;;;;;3.47;0.95;;;;;;;;;;5053692;28;20699;-59
2022/07/14 11:48:44;;;;;;;3.90;0.98;;;;;;;;;;5046061;28;20551;-58
2022/07/14 11:51:31;;;;;;;2.72;0.60;;;;;;;;;;5060930;28;20183;-57
2022/07/14 11:53:59;;;;;;;2.38;0.50;;;;;;;;;;5064510;28;20190;-58
2022/07/14 11:56:26;;;;;;;3.00;0.30;;;;;;;;;;5054705;28;20246;-58
2022/07/14 11:58:53;;;;;;;1.73;0.40;;;;;;;;;;5069966;28;20178;-59
2022/07/14 12:01:20;;;;;;;1.60;0.57;;;;;;;;;;5071628;28;20190;-58
2022/07/14 12:03:47;;;;;;;2.25;0.52;;;;;;;;;;5069779;28;20754;-59
2022/07/14 12:06:14;;;;;;;2.15;0.40;;;;;;;;;;5031912;28;20225;-58
2022/07/14 12:08:41;;;;;;;2.13;0.80;;;;;;;;;;5068492;28;20703;-58
2022/07/14 12:11:12;;;;;;;2.88;0.82;;;;;;;;;;5050610;28;20190;-59
2022/07/14 12:13:50;;;;;;;3.67;0.70;;;;;;;;;;5061484;28;20179;-58
2022/07/14 12:16:16;;;;;;;6.63;0.60;;;;;;;;;;5071780;28;20663;-59
2022/07/14 12:18:43;;;;;;;2.95;0.70;;;;;;;;;;5034360;28;20191;-58
2022/07/14 12:21:09;;;;;;;2.55;0.70;;;;;;;;;;5061913;28;20546;-59
2022/07/14 12:23:35;;;;;;;2.67;0.55;;;;;;;;;;5071167;28;20191;-59
2022/07/14 12:26:02;;;;;;;8.23;1.00;;;;;;;;;;5073059;28;20600;-58
2022/07/14 12:28:29;;;;;;;3.67;0.60;;;;;;;;;;5074593;28;20189;-59
2022/07/14 12:30:56;;;;;;;2.00;0.60;;;;;;;;;;5074595;28;20183;-58
2022/07/14 12:33:24;;;;;;;3.53;0.75;;;;;;;;;;5073971;28;20205;-58
2022/07/14 12:35:52;;;;;;;3.00;0.60;;;;;;;;;;5064669;28;20179;-60
2022/07/14 12:38:19;;;;;;;4.32;0.68;;;;;;;;;;5058553;28;20309;-58
2022/07/14 12:40:53;;;;;;;3.42;0.80;;;;;;;;;;5066062;28;20187;-58
2022/07/14 12:43:20;;;;;;;5.65;0.60;;;;;;;;;;5058512;28;20756;-58
2022/07/14 12:46:00;;;;;;;1.98;0.68;;;;;;;;;;5075033;28;20214;-59
2022/07/14 12:48:27;;;;;;;2.15;0.60;;;;;;;;;;5070946;28;20190;-58
2022/07/14 12:50:53;;;;;;;1.45;0.63;;;;;;;;;;5067612;28;20608;-58
2022/07/14 12:53:20;;;;;;;2.42;0.70;;;;;;;;;;5067570;28;20602;-59
2022/07/14 12:55:48;;;;;;;1.80;0.50;;;;;;;;;;5075887;28;20189;-58
2022/07/14 12:58:14;;;;;;;5.28;0.73;;;;;;;;;;5072648;28;20233;-58
2022/07/14 13:00:44;;;;;;;5.97;0.90;;;;;;;;;;5061087;28;20191;-58
2022/07/14 13:03:10;;;;;;;2.25;0.70;;;;;;;;;;5055985;28;20179;-57
2022/07/14 13:05:37;;;;;;;4.90;0.82;;;;;;;;;;5043098;28;20563;-59
2022/07/14 13:08:24;;;;;;;1.35;0.60;;;;;;;;;;5052716;28;20560;-58
2022/07/14 13:10:57;;;;;;;4.22;1.00;;;;;;;;;;5061522;28;20202;-57
2022/07/14 13:13:30;;;;;;;3.78;0.77;;;;;;;;;;5073562;28;20184;-58
2022/07/14 13:16:18;;;;;;;1.95;0.80;;;;;;;;;;5073455;28;20194;-58
2022/07/14 13:19:04;;;;;;;3.22;1.00;;;;;;;;;;5071937;28;20182;-58
2022/07/14 13:21:49;;;;;;;2.72;0.70;;;;;;;;;;5057439;28;20206;-58
2022/07/14 13:24:16;;;;;;;3.97;0.80;;;;;;;;;;5073962;28;20214;-57
2022/07/14 13:26:42;;;;;;;2.40;0.90;;;;;;;;;;5073963;28;20640;-59
2022/07/14 13:29:09;;;;;;;6.55;1.70;;;;;;;;;;5064586;28;20195;-59
2022/07/14 13:31:35;;;;;;;8.38;1.50;;;;;;;;;;5055277;28;20177;-58
2022/07/14 13:34:02;;;;;;;4.13;1.15;;;;;;;;;;5063992;28;20190;-57
2022/07/14 13:36:28;;;;;;;2.75;0.70;;;;;;;;;;5045404;28;20240;-58
2022/07/14 13:38:55;;;;;;;2.15;0.70;;;;;;;;;;5069579;28;20193;-58
2022/07/14 13:41:21;;;;;;;1.60;0.73;;;;;;;;;;5053702;28;20178;-58
2022/07/14 13:43:50;;;;;;;2.65;0.60;;;;;;;;;;5072289;28;20187;-59
2022/07/14 13:46:17;;;;;;;1.83;0.65;;;;;;;;;;5064271;28;20253;-58
2022/07/14 13:48:44;;;;;;;3.17;0.57;;;;;;;;;;5067889;28;20269;-57
2022/07/14 13:53:55;;;;;;;3.53;0.60;;;;;;;;;;5072077;28;20214;-58
2022/07/14 13:56:21;;;;;;;2.03;0.68;;;;;;;;;;5067465;28;20294;-59
2022/07/14 13:58:47;;;;;;;5.15;0.77;;;;;;;;;;5073590;28;20232;-58
2022/07/14 14:01:14;;;;;;;2.72;0.93;;;;;;;;;;5073743;28;20184;-57
2022/07/14 14:03:40;;;;;;;1.98;0.80;;;;;;;;;;5073237;28;20222;-58
2022/07/14 14:06:10;;;;;;;3.08;0.63;;;;;;;;;;5073392;28;20206;-57
2022/07/14 14:08:37;;;;;;;3.42;0.65;;;;;;;;;;5073625;28;20218;-57
2022/07/14 14:11:04;;;;;;;1.63;0.60;;;;;;;;;;5074249;28;20194;-58
2022/07/14 14:13:30;;;;;;;1.15;0.50;;;;;;;;;;5073283;28;20631;-58
2022/07/14 14:16:00;;;;;;;2.45;0.80;;;;;;;;;;5068674;28;20546;-58
2022/07/14 14:18:27;;;;;;;3.35;0.60;;;;;;;;;;5071060;28;20183;-58
2022/07/14 14:20:53;;;;;;;2.70;0.80;;;;;;;;;;5055574;28;20193;-58
2022/07/14 14:23:19;;;;;;;2.10;0.60;;;;;;;;;;5072031;28;20186;-58
2022/07/14 14:25:46;;;;;;;4.47;1.10;;;;;;;;;;5046033;28;20174;-59
2022/07/14 14:28:12;;;;;;;4.53;1.10;;;;;;;;;;5072445;28;21287;-58
2022/07/14 14:30:39;;;;;;;6.47;0.98;;;;;;;;;;5073757;28;20201;-60
2022/07/14 14:33:05;;;;;;;3.28;0.88;;;;;;;;;;5070807;28;20221;-59
2022/07/14 14:35:32;;;;;;;9.07;1.05;;;;;;;;;;5048903;28;20179;-58
2022/07/14 14:37:58;;;;;;;3.20;0.85;;;;;;;;;;5062777;28;20291;-59
2022/07/14 14:40:25;;;;;;;6.47;0.93;;;;;;;;;;5071649;28;20201;-59
2022/07/14 14:42:51;;;;;;;3.63;0.80;;;;;;;;;;5057809;28;20183;-59
2022/07/14 14:45:20;;;;;;;5.00;1.08;;;;;;;;;;5071226;28;20190;-59
2022/07/14 14:47:46;;;;;;;3.47;0.95;;;;;;;;;;5071356;28;20621;-59
2022/07/14 14:50:13;;;;;;;7.10;1.17;;;;;;;;;;5072093;28;20273;-58
2022/07/14 14:52:39;;;;;;;4.78;1.10;;;;;;;;;;5072265;28;20183;-59
2022/07/14 14:55:06;;;;;;;11.50;1.92;;;;;;;;;;5063089;28;20179;-59
2022/07/14 14:57:33;;;;;;;4.88;1.13;;;;;;;;;;5077600;28;20289;-58